sensor_id;sensor_type;location;lat;lon;timestamp;temperature;humidity
66035;HTU21D;52805;51.074;5.842;2024-03-22T00:01:52;13.67;26.96
66035;HTU21D;52805;51.074;5.842;2024-03-22T00:04:18;13.64;27.26
66035;HTU21D;52805;51.074;5.842;2024-03-22T00:06:48;13.64;27.03
66035;HTU21D;52805;51.074;5.842;2024-03-22T00:09:15;13.63;27.00
66035;HTU21D;52805;51.074;5.842;2024-03-22T00:11:43;13.62;27.11
66035;HTU21D;52805;51.074;5.842;2024-03-22T00:14:10;13.60;27.30
66035;HTU21D;52805;51.074;5.842;2024-03-22T00:16:36;13.59;27.32
66035;HTU21D;52805;51.074;5.842;2024-03-22T00:19:02;13.58;27.74
66035;HTU21D;52805;51.074;5.842;2024-03-22T00:21:28;13.59;28.38
66035;HTU21D;52805;51.074;5.842;2024-03-22T00:23:58;13.58;28.53
66035;HTU21D;52805;51.074;5.842;2024-03-22T00:26:23;13.59;27.86
66035;HTU21D;52805;51.074;5.842;2024-03-22T00:28:49;13.59;28.77
66035;HTU21D;52805;51.074;5.842;2024-03-22T00:31:16;13.56;28.72
66035;HTU21D;52805;51.074;5.842;2024-03-22T00:33:42;13.59;28.39
66035;HTU21D;52805;51.074;5.842;2024-03-22T00:36:08;13.56;28.56
66035;HTU21D;52805;51.074;5.842;2024-03-22T00:38:33;13.59;29.33
66035;HTU21D;52805;51.074;5.842;2024-03-22T00:40:59;13.56;29.23
66035;HTU21D;52805;51.074;5.842;2024-03-22T00:43:25;13.58;29.74
66035;HTU21D;52805;51.074;5.842;2024-03-22T00:45:50;13.59;29.26
66035;HTU21D;52805;51.074;5.842;2024-03-22T00:48:16;13.59;29.90
66035;HTU21D;52805;51.074;5.842;2024-03-22T00:50:42;13.58;29.61
66035;HTU21D;52805;51.074;5.842;2024-03-22T00:53:08;13.61;29.32
66035;HTU21D;52805;51.074;5.842;2024-03-22T00:55:35;13.59;30.25
66035;HTU21D;52805;51.074;5.842;2024-03-22T00:58:01;13.61;29.80
66035;HTU21D;52805;51.074;5.842;2024-03-22T01:00:27;13.64;30.39
66035;HTU21D;52805;51.074;5.842;2024-03-22T01:02:52;13.66;30.48
66035;HTU21D;52805;51.074;5.842;2024-03-22T01:05:18;13.65;30.38
66035;HTU21D;52805;51.074;5.842;2024-03-22T01:07:44;13.67;30.76
66035;HTU21D;52805;51.074;5.842;2024-03-22T01:10:13;13.68;30.01
66035;HTU21D;52805;51.074;5.842;2024-03-22T01:12:39;13.69;30.30
66035;HTU21D;52805;51.074;5.842;2024-03-22T01:15:06;13.69;30.73
66035;HTU21D;52805;51.074;5.842;2024-03-22T01:17:32;13.71;30.90
66035;HTU21D;52805;51.074;5.842;2024-03-22T01:19:58;13.71;30.54
66035;HTU21D;52805;51.074;5.842;2024-03-22T01:22:24;13.74;30.97
66035;HTU21D;52805;51.074;5.842;2024-03-22T01:24:50;13.73;30.29
66035;HTU21D;52805;51.074;5.842;2024-03-22T01:27:15;13.70;30.50
66035;HTU21D;52805;51.074;5.842;2024-03-22T01:29:41;13.71;31.20
66035;HTU21D;52805;51.074;5.842;2024-03-22T01:32:07;13.71;30.89
66035;HTU21D;52805;51.074;5.842;2024-03-22T01:34:33;13.76;31.17
66035;HTU21D;52805;51.074;5.842;2024-03-22T01:37:00;13.75;31.33
66035;HTU21D;52805;51.074;5.842;2024-03-22T01:39:26;13.75;31.19
66035;HTU21D;52805;51.074;5.842;2024-03-22T01:41:51;13.74;31.23
66035;HTU21D;52805;51.074;5.842;2024-03-22T01:44:18;13.74;31.19
66035;HTU21D;52805;51.074;5.842;2024-03-22T01:46:46;13.76;30.75
66035;HTU21D;52805;51.074;5.842;2024-03-22T01:49:15;13.76;31.26
66035;HTU21D;52805;51.074;5.842;2024-03-22T01:51:42;13.78;30.89
66035;HTU21D;52805;51.074;5.842;2024-03-22T01:54:10;13.78;30.58
66035;HTU21D;52805;51.074;5.842;2024-03-22T01:56:37;13.76;31.15
66035;HTU21D;52805;51.074;5.842;2024-03-22T01:59:06;13.78;31.57
66035;HTU21D;52805;51.074;5.842;2024-03-22T02:01:33;13.79;31.07
66035;HTU21D;52805;51.074;5.842;2024-03-22T02:03:59;13.81;31.36
66035;HTU21D;52805;51.074;5.842;2024-03-22T02:06:25;13.80;31.69
66035;HTU21D;52805;51.074;5.842;2024-03-22T02:08:51;13.83;30.92
66035;HTU21D;52805;51.074;5.842;2024-03-22T02:11:17;13.84;30.78
66035;HTU21D;52805;51.074;5.842;2024-03-22T02:13:42;13.81;31.09
66035;HTU21D;52805;51.074;5.842;2024-03-22T02:16:09;13.83;31.02
66035;HTU21D;52805;51.074;5.842;2024-03-22T02:18:34;13.84;31.49
66035;HTU21D;52805;51.074;5.842;2024-03-22T02:21:00;13.85;31.45
66035;HTU21D;52805;51.074;5.842;2024-03-22T02:25:59;13.85;30.98
66035;HTU21D;52805;51.074;5.842;2024-03-22T02:28:25;13.82;31.23
66035;HTU21D;52805;51.074;5.842;2024-03-22T02:30:51;13.81;31.76
66035;HTU21D;52805;51.074;5.842;2024-03-22T02:33:17;13.82;31.04
66035;HTU21D;52805;51.074;5.842;2024-03-22T02:35:43;13.83;31.72
66035;HTU21D;52805;51.074;5.842;2024-03-22T02:38:09;13.83;31.25
66035;HTU21D;52805;51.074;5.842;2024-03-22T02:40:34;13.84;31.74
66035;HTU21D;52805;51.074;5.842;2024-03-22T02:43:00;13.84;31.83
66035;HTU21D;52805;51.074;5.842;2024-03-22T02:45:26;13.85;31.64
66035;HTU21D;52805;51.074;5.842;2024-03-22T02:47:51;13.82;31.70
66035;HTU21D;52805;51.074;5.842;2024-03-22T02:50:17;13.81;31.93
66035;HTU21D;52805;51.074;5.842;2024-03-22T02:52:42;13.80;31.20
66035;HTU21D;52805;51.074;5.842;2024-03-22T02:55:08;13.80;31.77
66035;HTU21D;52805;51.074;5.842;2024-03-22T02:57:34;13.79;31.40
66035;HTU21D;52805;51.074;5.842;2024-03-22T03:00:03;13.78;31.41
66035;HTU21D;52805;51.074;5.842;2024-03-22T03:02:30;13.77;31.98
66035;HTU21D;52805;51.074;5.842;2024-03-22T03:04:56;13.74;31.70
66035;HTU21D;52805;51.074;5.842;2024-03-22T03:07:24;13.71;31.50
66035;HTU21D;52805;51.074;5.842;2024-03-22T03:09:50;13.69;31.64
66035;HTU21D;52805;51.074;5.842;2024-03-22T03:12:15;13.66;32.38
66035;HTU21D;52805;51.074;5.842;2024-03-22T03:14:41;13.63;32.39
66035;HTU21D;52805;51.074;5.842;2024-03-22T03:17:07;13.61;32.40
66035;HTU21D;52805;51.074;5.842;2024-03-22T03:19:33;13.59;32.08
66035;HTU21D;52805;51.074;5.842;2024-03-22T03:21:59;13.59;32.25
66035;HTU21D;52805;51.074;5.842;2024-03-22T03:24:25;13.54;32.22
66035;HTU21D;52805;51.074;5.842;2024-03-22T03:26:50;13.55;31.74
66035;HTU21D;52805;51.074;5.842;2024-03-22T03:29:16;13.49;32.35
66035;HTU21D;52805;51.074;5.842;2024-03-22T03:31:42;13.48;32.43
66035;HTU21D;52805;51.074;5.842;2024-03-22T03:34:07;13.49;32.79
66035;HTU21D;52805;51.074;5.842;2024-03-22T03:36:33;13.51;32.64
66035;HTU21D;52805;51.074;5.842;2024-03-22T03:38:58;13.51;32.70
66035;HTU21D;52805;51.074;5.842;2024-03-22T03:41:24;13.51;32.34
66035;HTU21D;52805;51.074;5.842;2024-03-22T03:43:50;13.52;32.51
66035;HTU21D;52805;51.074;5.842;2024-03-22T03:46:15;13.54;31.95
66035;HTU21D;52805;51.074;5.842;2024-03-22T03:48:41;13.56;32.36
66035;HTU21D;52805;51.074;5.842;2024-03-22T03:51:07;13.53;32.57
66035;HTU21D;52805;51.074;5.842;2024-03-22T03:53:32;13.53;31.78
66035;HTU21D;52805;51.074;5.842;2024-03-22T03:55:58;13.53;31.70
66035;HTU21D;52805;51.074;5.842;2024-03-22T03:58:24;13.49;32.19
66035;HTU21D;52805;51.074;5.842;2024-03-22T04:00:50;13.49;31.93
66035;HTU21D;52805;51.074;5.842;2024-03-22T04:03:16;13.47;31.73
66035;HTU21D;52805;51.074;5.842;2024-03-22T04:05:42;13.47;32.10
66035;HTU21D;52805;51.074;5.842;2024-03-22T04:08:07;13.46;32.31
66035;HTU21D;52805;51.074;5.842;2024-03-22T04:10:33;13.46;31.81
66035;HTU21D;52805;51.074;5.842;2024-03-22T04:12:59;13.46;32.08
66035;HTU21D;52805;51.074;5.842;2024-03-22T04:15:24;13.46;31.82
66035;HTU21D;52805;51.074;5.842;2024-03-22T04:17:50;13.47;31.51
66035;HTU21D;52805;51.074;5.842;2024-03-22T04:20:16;13.50;31.89
66035;HTU21D;52805;51.074;5.842;2024-03-22T04:22:42;13.48;32.29
66035;HTU21D;52805;51.074;5.842;2024-03-22T04:25:07;13.52;31.34
66035;HTU21D;52805;51.074;5.842;2024-03-22T04:27:37;13.49;31.44
66035;HTU21D;52805;51.074;5.842;2024-03-22T04:30:02;13.49;32.04
66035;HTU21D;52805;51.074;5.842;2024-03-22T04:32:28;13.46;31.63
66035;HTU21D;52805;51.074;5.842;2024-03-22T04:34:54;13.45;31.73
66035;HTU21D;52805;51.074;5.842;2024-03-22T04:37:20;13.48;31.56
66035;HTU21D;52805;51.074;5.842;2024-03-22T04:39:46;13.47;31.90
66035;HTU21D;52805;51.074;5.842;2024-03-22T04:42:12;13.47;31.54
66035;HTU21D;52805;51.074;5.842;2024-03-22T04:44:38;13.46;32.25
66035;HTU21D;52805;51.074;5.842;2024-03-22T04:47:03;13.49;31.54
66035;HTU21D;52805;51.074;5.842;2024-03-22T04:49:29;13.47;32.09
66035;HTU21D;52805;51.074;5.842;2024-03-22T04:51:55;13.50;31.96
66035;HTU21D;52805;51.074;5.842;2024-03-22T04:54:20;13.48;31.41
66035;HTU21D;52805;51.074;5.842;2024-03-22T04:56:46;13.47;31.84
66035;HTU21D;52805;51.074;5.842;2024-03-22T04:59:12;13.48;32.35
66035;HTU21D;52805;51.074;5.842;2024-03-22T05:01:37;13.48;32.35
66035;HTU21D;52805;51.074;5.842;2024-03-22T05:04:03;13.47;31.84
66035;HTU21D;52805;51.074;5.842;2024-03-22T05:06:29;13.51;31.48
66035;HTU21D;52805;51.074;5.842;2024-03-22T05:08:54;13.49;31.75
66035;HTU21D;52805;51.074;5.842;2024-03-22T05:11:20;13.46;32.28
66035;HTU21D;52805;51.074;5.842;2024-03-22T05:13:46;13.46;32.34
66035;HTU21D;52805;51.074;5.842;2024-03-22T05:16:12;13.47;31.58
66035;HTU21D;52805;51.074;5.842;2024-03-22T05:18:37;13.46;31.86
66035;HTU21D;52805;51.074;5.842;2024-03-22T05:21:03;13.48;32.18
66035;HTU21D;52805;51.074;5.842;2024-03-22T05:23:29;13.50;31.26
66035;HTU21D;52805;51.074;5.842;2024-03-22T05:25:55;13.48;32.19
66035;HTU21D;52805;51.074;5.842;2024-03-22T05:28:20;13.51;31.73
66035;HTU21D;52805;51.074;5.842;2024-03-22T05:30:47;13.49;31.24
66035;HTU21D;52805;51.074;5.842;2024-03-22T05:33:12;13.52;31.15
66035;HTU21D;52805;51.074;5.842;2024-03-22T05:35:38;13.50;31.80
66035;HTU21D;52805;51.074;5.842;2024-03-22T05:38:04;13.51;31.01
66035;HTU21D;52805;51.074;5.842;2024-03-22T05:40:29;13.51;31.05
66035;HTU21D;52805;51.074;5.842;2024-03-22T05:42:55;13.50;31.46
66035;HTU21D;52805;51.074;5.842;2024-03-22T05:45:21;13.51;30.96
66035;HTU21D;52805;51.074;5.842;2024-03-22T05:47:47;13.51;31.36
66035;HTU21D;52805;51.074;5.842;2024-03-22T05:50:13;13.52;31.02
66035;HTU21D;52805;51.074;5.842;2024-03-22T05:52:40;13.53;31.54
66035;HTU21D;52805;51.074;5.842;2024-03-22T05:55:05;13.53;30.79
66035;HTU21D;52805;51.074;5.842;2024-03-22T05:57:31;13.54;30.71
66035;HTU21D;52805;51.074;5.842;2024-03-22T05:59:57;13.56;30.67
66035;HTU21D;52805;51.074;5.842;2024-03-22T06:02:23;13.58;31.39
66035;HTU21D;52805;51.074;5.842;2024-03-22T06:04:48;13.60;31.08
66035;HTU21D;52805;51.074;5.842;2024-03-22T06:07:14;13.61;30.73
66035;HTU21D;52805;51.074;5.842;2024-03-22T06:09:41;13.66;31.10
66035;HTU21D;52805;51.074;5.842;2024-03-22T06:12:15;13.66;30.96
66035;HTU21D;52805;51.074;5.842;2024-03-22T06:14:44;13.67;30.92
66035;HTU21D;52805;51.074;5.842;2024-03-22T06:17:10;13.66;30.50
66035;HTU21D;52805;51.074;5.842;2024-03-22T06:19:37;13.69;30.33
66035;HTU21D;52805;51.074;5.842;2024-03-22T06:22:03;13.73;30.59
66035;HTU21D;52805;51.074;5.842;2024-03-22T06:24:29;13.74;30.95
66035;HTU21D;52805;51.074;5.842;2024-03-22T06:26:55;13.74;30.51
66035;HTU21D;52805;51.074;5.842;2024-03-22T06:29:20;13.77;30.86
66035;HTU21D;52805;51.074;5.842;2024-03-22T06:31:47;13.78;30.54
66035;HTU21D;52805;51.074;5.842;2024-03-22T06:34:13;13.79;30.90
66035;HTU21D;52805;51.074;5.842;2024-03-22T06:36:38;13.83;30.65
66035;HTU21D;52805;51.074;5.842;2024-03-22T06:39:04;13.89;30.45
66035;HTU21D;52805;51.074;5.842;2024-03-22T06:41:33;13.90;29.90
66035;HTU21D;52805;51.074;5.842;2024-03-22T06:43:59;13.93;29.87
66035;HTU21D;52805;51.074;5.842;2024-03-22T06:46:25;13.97;30.25
66035;HTU21D;52805;51.074;5.842;2024-03-22T06:48:52;14.00;29.81
66035;HTU21D;52805;51.074;5.842;2024-03-22T06:51:17;14.04;30.24
66035;HTU21D;52805;51.074;5.842;2024-03-22T06:53:43;14.04;30.22
66035;HTU21D;52805;51.074;5.842;2024-03-22T06:56:08;14.09;29.95
66035;HTU21D;52805;51.074;5.842;2024-03-22T06:58:40;14.11;29.78
66035;HTU21D;52805;51.074;5.842;2024-03-22T07:01:06;14.13;29.83
66035;HTU21D;52805;51.074;5.842;2024-03-22T07:03:32;14.15;29.21
66035;HTU21D;52805;51.074;5.842;2024-03-22T07:05:58;14.15;29.41
66035;HTU21D;52805;51.074;5.842;2024-03-22T07:08:24;14.22;28.82
66035;HTU21D;52805;51.074;5.842;2024-03-22T07:10:50;14.25;28.78
66035;HTU21D;52805;51.074;5.842;2024-03-22T07:13:16;14.30;28.98
66035;HTU21D;52805;51.074;5.842;2024-03-22T07:15:47;14.30;28.00
66035;HTU21D;52805;51.074;5.842;2024-03-22T07:18:13;14.28;28.77
66035;HTU21D;52805;51.074;5.842;2024-03-22T07:20:39;14.32;28.43
66035;HTU21D;52805;51.074;5.842;2024-03-22T07:23:05;14.35;28.42
66035;HTU21D;52805;51.074;5.842;2024-03-22T07:25:31;14.34;28.09
66035;HTU21D;52805;51.074;5.842;2024-03-22T07:27:57;14.39;28.35
66035;HTU21D;52805;51.074;5.842;2024-03-22T07:30:22;14.41;27.74
66035;HTU21D;52805;51.074;5.842;2024-03-22T07:32:48;14.42;28.55
66035;HTU21D;52805;51.074;5.842;2024-03-22T07:35:14;14.47;28.09
66035;HTU21D;52805;51.074;5.842;2024-03-22T07:37:39;14.51;27.53
66035;HTU21D;52805;51.074;5.842;2024-03-22T07:40:05;14.49;27.38
66035;HTU21D;52805;51.074;5.842;2024-03-22T07:42:31;14.53;27.25
66035;HTU21D;52805;51.074;5.842;2024-03-22T07:44:57;14.52;26.94
66035;HTU21D;52805;51.074;5.842;2024-03-22T07:47:23;14.55;26.71
66035;HTU21D;52805;51.074;5.842;2024-03-22T07:49:49;14.56;25.83
66035;HTU21D;52805;51.074;5.842;2024-03-22T07:52:14;14.55;26.83
66035;HTU21D;52805;51.074;5.842;2024-03-22T07:54:40;14.59;26.10
66035;HTU21D;52805;51.074;5.842;2024-03-22T07:57:05;14.63;26.33
66035;HTU21D;52805;51.074;5.842;2024-03-22T07:59:32;14.67;25.69
66035;HTU21D;52805;51.074;5.842;2024-03-22T08:01:57;14.69;25.71
66035;HTU21D;52805;51.074;5.842;2024-03-22T08:04:23;14.69;25.46
66035;HTU21D;52805;51.074;5.842;2024-03-22T08:06:50;14.68;25.17
66035;HTU21D;52805;51.074;5.842;2024-03-22T08:09:16;14.69;25.18
66035;HTU21D;52805;51.074;5.842;2024-03-22T08:11:43;14.70;24.65
66035;HTU21D;52805;51.074;5.842;2024-03-22T08:14:09;14.68;24.52
66035;HTU21D;52805;51.074;5.842;2024-03-22T08:16:34;14.70;24.68
66035;HTU21D;52805;51.074;5.842;2024-03-22T08:19:00;14.75;24.08
66035;HTU21D;52805;51.074;5.842;2024-03-22T08:21:26;14.75;24.11
66035;HTU21D;52805;51.074;5.842;2024-03-22T08:23:52;14.78;24.34
66035;HTU21D;52805;51.074;5.842;2024-03-22T08:26:18;14.84;24.17
66035;HTU21D;52805;51.074;5.842;2024-03-22T08:28:46;14.93;24.24
66035;HTU21D;52805;51.074;5.842;2024-03-22T08:31:12;15.06;24.37
66035;HTU21D;52805;51.074;5.842;2024-03-22T08:33:38;15.18;24.29
66035;HTU21D;52805;51.074;5.842;2024-03-22T08:36:04;15.24;23.27
66035;HTU21D;52805;51.074;5.842;2024-03-22T08:38:30;15.30;22.66
66035;HTU21D;52805;51.074;5.842;2024-03-22T08:40:55;15.38;21.65
66035;HTU21D;52805;51.074;5.842;2024-03-22T08:43:21;15.40;21.49
66035;HTU21D;52805;51.074;5.842;2024-03-22T08:45:55;15.47;21.34
66035;HTU21D;52805;51.074;5.842;2024-03-22T08:48:21;15.53;20.63
66035;HTU21D;52805;51.074;5.842;2024-03-22T08:50:47;15.65;20.12
66035;HTU21D;52805;51.074;5.842;2024-03-22T08:53:12;15.68;19.09
66035;HTU21D;52805;51.074;5.842;2024-03-22T08:55:38;15.74;19.14
66035;HTU21D;52805;51.074;5.842;2024-03-22T08:58:04;15.77;19.41
66035;HTU21D;52805;51.074;5.842;2024-03-22T09:00:30;15.81;19.03
66035;HTU21D;52805;51.074;5.842;2024-03-22T09:02:56;15.88;18.91
66035;HTU21D;52805;51.074;5.842;2024-03-22T09:05:22;15.88;18.83
66035;HTU21D;52805;51.074;5.842;2024-03-22T09:07:47;15.92;18.04
66035;HTU21D;52805;51.074;5.842;2024-03-22T09:10:13;15.88;17.19
66035;HTU21D;52805;51.074;5.842;2024-03-22T09:12:39;15.84;17.09
66035;HTU21D;52805;51.074;5.842;2024-03-22T09:15:06;15.81;16.39
66035;HTU21D;52805;51.074;5.842;2024-03-22T09:17:32;15.73;16.89
66035;HTU21D;52805;51.074;5.842;2024-03-22T09:19:58;15.68;16.84
66035;HTU21D;52805;51.074;5.842;2024-03-22T09:22:24;15.67;16.85
66035;HTU21D;52805;51.074;5.842;2024-03-22T09:24:50;15.68;16.41
66035;HTU21D;52805;51.074;5.842;2024-03-22T09:27:15;15.69;15.87
66035;HTU21D;52805;51.074;5.842;2024-03-22T09:29:41;15.69;16.38
66035;HTU21D;52805;51.074;5.842;2024-03-22T09:32:09;15.73;15.82
66035;HTU21D;52805;51.074;5.842;2024-03-22T09:34:35;15.72;15.96
66035;HTU21D;52805;51.074;5.842;2024-03-22T09:37:00;15.75;15.66
66035;HTU21D;52805;51.074;5.842;2024-03-22T09:39:27;15.86;15.77
66035;HTU21D;52805;51.074;5.842;2024-03-22T09:41:57;15.90;14.84
66035;HTU21D;52805;51.074;5.842;2024-03-22T09:44:23;15.93;14.94
66035;HTU21D;52805;51.074;5.842;2024-03-22T09:46:50;15.99;13.91
66035;HTU21D;52805;51.074;5.842;2024-03-22T09:49:16;15.97;13.85
66035;HTU21D;52805;51.074;5.842;2024-03-22T09:51:43;15.98;13.07
66035;HTU21D;52805;51.074;5.842;2024-03-22T09:54:10;16.00;12.75
66035;HTU21D;52805;51.074;5.842;2024-03-22T09:56:38;16.01;12.84
66035;HTU21D;52805;51.074;5.842;2024-03-22T09:59:05;16.04;12.53
66035;HTU21D;52805;51.074;5.842;2024-03-22T10:01:33;16.02;12.41
66035;HTU21D;52805;51.074;5.842;2024-03-22T10:04:00;16.04;11.81
66035;HTU21D;52805;51.074;5.842;2024-03-22T10:06:26;16.03;11.94
66035;HTU21D;52805;51.074;5.842;2024-03-22T10:08:51;16.03;11.97
66035;HTU21D;52805;51.074;5.842;2024-03-22T10:11:17;16.02;11.22
66035;HTU21D;52805;51.074;5.842;2024-03-22T10:13:43;16.05;11.16
66035;HTU21D;52805;51.074;5.842;2024-03-22T10:16:11;16.06;11.01
66035;HTU21D;52805;51.074;5.842;2024-03-22T10:18:37;16.06;11.22
66035;HTU21D;52805;51.074;5.842;2024-03-22T10:21:06;16.16;11.07
66035;HTU21D;52805;51.074;5.842;2024-03-22T10:23:32;16.18;10.69
66035;HTU21D;52805;51.074;5.842;2024-03-22T10:25:59;16.24;10.43
66035;HTU21D;52805;51.074;5.842;2024-03-22T10:28:25;16.28;9.88
66035;HTU21D;52805;51.074;5.842;2024-03-22T10:30:52;16.28;9.57
66035;HTU21D;52805;51.074;5.842;2024-03-22T10:33:20;16.30;9.69
66035;HTU21D;52805;51.074;5.842;2024-03-22T10:35:53;16.31;9.40
66035;HTU21D;52805;51.074;5.842;2024-03-22T10:38:20;16.36;9.44
66035;HTU21D;52805;51.074;5.842;2024-03-22T10:40:47;16.39;9.40
66035;HTU21D;52805;51.074;5.842;2024-03-22T10:43:16;16.43;8.52
66035;HTU21D;52805;51.074;5.842;2024-03-22T10:45:43;16.43;7.98
66035;HTU21D;52805;51.074;5.842;2024-03-22T10:48:17;16.45;7.53
66035;HTU21D;52805;51.074;5.842;2024-03-22T10:50:44;16.52;7.61
66035;HTU21D;52805;51.074;5.842;2024-03-22T10:53:16;16.59;7.69
66035;HTU21D;52805;51.074;5.842;2024-03-22T10:55:47;16.62;7.53
66035;HTU21D;52805;51.074;5.842;2024-03-22T10:58:18;16.71;7.30
66035;HTU21D;52805;51.074;5.842;2024-03-22T11:00:46;16.67;6.81
66035;HTU21D;52805;51.074;5.842;2024-03-22T11:03:15;16.64;6.67
66035;HTU21D;52805;51.074;5.842;2024-03-22T11:05:47;16.57;6.99
66035;HTU21D;52805;51.074;5.842;2024-03-22T11:08:13;16.49;6.96
66035;HTU21D;52805;51.074;5.842;2024-03-22T11:10:39;16.49;6.65
66035;HTU21D;52805;51.074;5.842;2024-03-22T11:13:06;16.50;6.98
66035;HTU21D;52805;51.074;5.842;2024-03-22T11:15:33;16.56;6.46
66035;HTU21D;52805;51.074;5.842;2024-03-22T11:18:00;16.54;6.45
66035;HTU21D;52805;51.074;5.842;2024-03-22T11:20:26;16.57;7.00
66035;HTU21D;52805;51.074;5.842;2024-03-22T11:22:53;16.58;7.07
66035;HTU21D;52805;51.074;5.842;2024-03-22T11:25:19;16.59;6.26
66035;HTU21D;52805;51.074;5.842;2024-03-22T11:27:46;16.52;6.66
66035;HTU21D;52805;51.074;5.842;2024-03-22T11:30:11;16.50;6.97
66035;HTU21D;52805;51.074;5.842;2024-03-22T11:32:39;16.49;7.05
66035;HTU21D;52805;51.074;5.842;2024-03-22T11:35:13;16.48;6.98
66035;HTU21D;52805;51.074;5.842;2024-03-22T11:37:39;16.50;6.79
66035;HTU21D;52805;51.074;5.842;2024-03-22T11:40:08;16.46;6.49
66035;HTU21D;52805;51.074;5.842;2024-03-22T11:42:37;16.44;6.43
66035;HTU21D;52805;51.074;5.842;2024-03-22T11:45:05;16.44;6.54
66035;HTU21D;52805;51.074;5.842;2024-03-22T11:47:32;16.39;6.57
66035;HTU21D;52805;51.074;5.842;2024-03-22T11:49:59;16.35;6.39
66035;HTU21D;52805;51.074;5.842;2024-03-22T11:52:28;16.30;6.60
66035;HTU21D;52805;51.074;5.842;2024-03-22T11:54:55;16.28;6.50
66035;HTU21D;52805;51.074;5.842;2024-03-22T11:57:21;16.27;6.82
66035;HTU21D;52805;51.074;5.842;2024-03-22T11:59:47;16.28;6.74
66035;HTU21D;52805;51.074;5.842;2024-03-22T12:02:13;16.30;6.71
66035;HTU21D;52805;51.074;5.842;2024-03-22T12:04:45;16.31;6.50
66035;HTU21D;52805;51.074;5.842;2024-03-22T12:07:13;16.29;6.07
66035;HTU21D;52805;51.074;5.842;2024-03-22T12:09:43;16.31;6.34
66035;HTU21D;52805;51.074;5.842;2024-03-22T12:12:11;16.36;6.06
66035;HTU21D;52805;51.074;5.842;2024-03-22T12:14:38;16.42;6.25
66035;HTU21D;52805;51.074;5.842;2024-03-22T12:17:05;16.48;6.00
66035;HTU21D;52805;51.074;5.842;2024-03-22T12:19:31;16.52;6.05
66035;HTU21D;52805;51.074;5.842;2024-03-22T12:21:57;16.58;5.57
66035;HTU21D;52805;51.074;5.842;2024-03-22T12:24:23;16.62;5.40
66035;HTU21D;52805;51.074;5.842;2024-03-22T12:26:50;16.65;5.18
66035;HTU21D;52805;51.074;5.842;2024-03-22T12:29:16;16.71;4.96
66035;HTU21D;52805;51.074;5.842;2024-03-22T12:31:42;16.63;5.12
66035;HTU21D;52805;51.074;5.842;2024-03-22T12:34:09;16.61;5.22
66035;HTU21D;52805;51.074;5.842;2024-03-22T12:36:34;16.58;5.19
66035;HTU21D;52805;51.074;5.842;2024-03-22T12:39:00;16.57;5.57
66035;HTU21D;52805;51.074;5.842;2024-03-22T12:41:27;16.58;5.25
66035;HTU21D;52805;51.074;5.842;2024-03-22T12:43:55;16.58;4.93
66035;HTU21D;52805;51.074;5.842;2024-03-22T12:46:20;16.52;5.25
66035;HTU21D;52805;51.074;5.842;2024-03-22T12:48:46;16.54;5.54
66035;HTU21D;52805;51.074;5.842;2024-03-22T12:51:12;16.55;5.40
66035;HTU21D;52805;51.074;5.842;2024-03-22T12:53:37;16.54;5.37
66035;HTU21D;52805;51.074;5.842;2024-03-22T12:56:04;16.52;5.49
66035;HTU21D;52805;51.074;5.842;2024-03-22T12:58:30;16.47;5.44
66035;HTU21D;52805;51.074;5.842;2024-03-22T13:00:57;16.40;5.38
66035;HTU21D;52805;51.074;5.842;2024-03-22T13:03:23;16.33;5.65
66035;HTU21D;52805;51.074;5.842;2024-03-22T13:05:48;16.27;5.83
66035;HTU21D;52805;51.074;5.842;2024-03-22T13:08:14;16.27;6.05
66035;HTU21D;52805;51.074;5.842;2024-03-22T13:10:40;16.21;6.09
66035;HTU21D;52805;51.074;5.842;2024-03-22T13:13:09;16.17;6.16
66035;HTU21D;52805;51.074;5.842;2024-03-22T13:15:35;16.14;6.49
66035;HTU21D;52805;51.074;5.842;2024-03-22T13:18:03;16.12;6.68
66035;HTU21D;52805;51.074;5.842;2024-03-22T13:20:28;16.11;6.76
66035;HTU21D;52805;51.074;5.842;2024-03-22T13:22:55;16.06;6.79
66035;HTU21D;52805;51.074;5.842;2024-03-22T13:25:20;16.02;7.19
66035;HTU21D;52805;51.074;5.842;2024-03-22T13:27:46;16.01;7.21
66035;HTU21D;52805;51.074;5.842;2024-03-22T13:30:12;15.96;7.68
66035;HTU21D;52805;51.074;5.842;2024-03-22T13:32:38;15.97;7.70
66035;HTU21D;52805;51.074;5.842;2024-03-22T13:35:05;15.90;7.66
66035;HTU21D;52805;51.074;5.842;2024-03-22T13:37:31;15.85;7.57
66035;HTU21D;52805;51.074;5.842;2024-03-22T13:39:57;15.84;8.08
66035;HTU21D;52805;51.074;5.842;2024-03-22T13:42:23;15.82;7.96
66035;HTU21D;52805;51.074;5.842;2024-03-22T13:44:49;15.80;8.15
66035;HTU21D;52805;51.074;5.842;2024-03-22T13:47:15;15.76;8.53
66035;HTU21D;52805;51.074;5.842;2024-03-22T13:49:40;15.75;8.20
66035;HTU21D;52805;51.074;5.842;2024-03-22T13:52:07;15.70;8.29
66035;HTU21D;52805;51.074;5.842;2024-03-22T13:54:33;15.65;8.59
66035;HTU21D;52805;51.074;5.842;2024-03-22T13:56:59;15.59;8.93
66035;HTU21D;52805;51.074;5.842;2024-03-22T13:59:28;15.56;9.11
66035;HTU21D;52805;51.074;5.842;2024-03-22T14:01:55;15.52;9.24
66035;HTU21D;52805;51.074;5.842;2024-03-22T14:04:22;15.51;9.67
66035;HTU21D;52805;51.074;5.842;2024-03-22T14:06:48;15.48;9.92
66035;HTU21D;52805;51.074;5.842;2024-03-22T14:09:14;15.52;9.96
66035;HTU21D;52805;51.074;5.842;2024-03-22T14:11:41;15.45;9.98
66035;HTU21D;52805;51.074;5.842;2024-03-22T14:14:09;15.34;10.10
66035;HTU21D;52805;51.074;5.842;2024-03-22T14:16:40;15.34;10.69
66035;HTU21D;52805;51.074;5.842;2024-03-22T14:19:07;15.30;10.94
66035;HTU21D;52805;51.074;5.842;2024-03-22T14:21:34;15.33;11.09
66035;HTU21D;52805;51.074;5.842;2024-03-22T14:24:00;15.29;11.13
66035;HTU21D;52805;51.074;5.842;2024-03-22T14:26:26;15.29;11.58
66035;HTU21D;52805;51.074;5.842;2024-03-22T14:28:51;15.27;11.54
66035;HTU21D;52805;51.074;5.842;2024-03-22T14:31:18;15.25;11.65
66035;HTU21D;52805;51.074;5.842;2024-03-22T14:33:45;15.24;11.77
66035;HTU21D;52805;51.074;5.842;2024-03-22T14:36:11;15.19;11.97
66035;HTU21D;52805;51.074;5.842;2024-03-22T14:38:38;15.16;11.95
66035;HTU21D;52805;51.074;5.842;2024-03-22T14:41:04;15.12;11.88
66035;HTU21D;52805;51.074;5.842;2024-03-22T14:43:29;15.08;11.79
66035;HTU21D;52805;51.074;5.842;2024-03-22T14:46:02;15.09;11.75
66035;HTU21D;52805;51.074;5.842;2024-03-22T14:48:29;15.06;11.91
66035;HTU21D;52805;51.074;5.842;2024-03-22T14:50:54;15.07;12.01
66035;HTU21D;52805;51.074;5.842;2024-03-22T14:53:21;15.00;12.78
66035;HTU21D;52805;51.074;5.842;2024-03-22T14:55:55;14.99;12.63
66035;HTU21D;52805;51.074;5.842;2024-03-22T14:58:24;14.91;13.00
66035;HTU21D;52805;51.074;5.842;2024-03-22T15:00:56;14.88;13.78
66035;HTU21D;52805;51.074;5.842;2024-03-22T15:03:22;14.84;14.42
66035;HTU21D;52805;51.074;5.842;2024-03-22T15:05:53;14.79;15.20
66035;HTU21D;52805;51.074;5.842;2024-03-22T15:08:20;14.80;15.82
66035;HTU21D;52805;51.074;5.842;2024-03-22T15:10:47;14.78;16.61
66035;HTU21D;52805;51.074;5.842;2024-03-22T15:13:16;14.79;17.32
66035;HTU21D;52805;51.074;5.842;2024-03-22T15:15:42;14.78;17.83
66035;HTU21D;52805;51.074;5.842;2024-03-22T15:18:09;14.77;18.43